Time;durP1;ratioP1;P1;durP2;ratioP2;P2;SDS_P1;SDS_P2;PMS_P1;PMS_P2;Temp;Humidity;BMP_temperature;BMP_pressure;BME280_temperature;BME280_humidity;BME280_pressure;Samples;Min_cycle;Max_cycle;Signal;HPM_P1;HPM_P2
2021/12/19 00:01:06;;;;;;;3.72;1.02;;;8.10;99.90;;;;;;6158101;23;20045;-69
2021/12/19 00:03:52;;;;;;;4.10;1.42;;;8.10;99.90;;;;;;6157737;23;20005;-69
2021/12/19 00:09:06;;;;;;;1.63;1.27;;;8.10;99.90;;;;;;6157626;23;20039;-68
2021/12/19 00:11:33;;;;;;;5.28;1.45;;;8.10;99.90;;;;;;6157635;23;20088;-69
2021/12/19 00:14:00;;;;;;;1.63;1.20;;;8.00;99.90;;;;;;6157591;23;20006;-69
2021/12/19 00:16:30;;;;;;;3.20;1.13;;;8.00;99.90;;;;;;6157610;23;20005;-69
2021/12/19 00:19:00;;;;;;;2.50;1.05;;;7.90;99.90;;;;;;6157457;23;20408;-69
2021/12/19 00:21:27;;;;;;;2.47;1.17;;;7.90;99.90;;;;;;6157514;23;20063;-69
2021/12/19 00:23:55;;;;;;;3.47;1.00;;;7.90;99.90;;;;;;6157997;23;20009;-69
2021/12/19 00:26:22;;;;;;;1.10;1.00;;;7.90;99.90;;;;;;6157535;23;20001;-69
2021/12/19 00:28:50;;;;;;;0.90;0.70;;;7.80;99.90;;;;;;6157455;23;20014;-69
2021/12/19 00:31:17;;;;;;;5.00;0.90;;;7.80;99.90;;;;;;6157302;23;20013;-69
2021/12/19 00:33:45;;;;;;;2.85;1.10;;;7.80;99.90;;;;;;6157575;23;20466;-69
2021/12/19 00:36:16;;;;;;;3.15;1.33;;;7.80;99.90;;;;;;6157884;23;20006;-69
2021/12/19 00:38:42;;;;;;;7.55;1.13;;;7.80;99.90;;;;;;6157324;23;20339;-69
2021/12/19 00:41:09;;;;;;;4.57;1.00;;;7.80;99.90;;;;;;6156264;23;20328;-69
2021/12/19 00:43:45;;;;;;;1.73;0.95;;;7.80;99.90;;;;;;6156003;23;20002;-69
2021/12/19 00:46:15;;;;;;;4.18;1.30;;;7.80;99.90;;;;;;6157423;23;20293;-69
2021/12/19 00:48:47;;;;;;;6.47;1.70;;;7.70;99.90;;;;;;6157736;23;20008;-69
2021/12/19 00:51:20;;;;;;;3.92;1.13;;;7.80;99.90;;;;;;6157397;23;20010;-69
2021/12/19 00:53:46;;;;;;;3.60;1.25;;;7.70;99.90;;;;;;6157316;23;20010;-69
2021/12/19 00:56:14;;;;;;;4.22;1.77;;;7.70;99.90;;;;;;6156870;23;20005;-69
2021/12/19 00:58:41;;;;;;;7.90;1.80;;;7.70;99.90;;;;;;6157125;23;20024;-69
2021/12/19 01:01:09;;;;;;;2.15;1.15;;;7.70;99.90;;;;;;6155722;23;20017;-69
2021/12/19 01:03:37;;;;;;;1.65;1.35;;;7.70;99.90;;;;;;6157322;23;20364;-69
2021/12/19 01:06:04;;;;;;;2.25;1.40;;;7.70;99.90;;;;;;6157165;23;20330;-69
2021/12/19 01:08:31;;;;;;;3.45;1.30;;;7.70;99.90;;;;;;6157174;23;19998;-69
2021/12/19 01:10:58;;;;;;;2.30;1.10;;;7.70;99.90;;;;;;6157092;23;20056;-69
2021/12/19 01:13:24;;;;;;;3.63;1.40;;;7.70;99.90;;;;;;6157489;23;20002;-69
2021/12/19 01:15:51;;;;;;;3.85;1.50;;;7.80;99.90;;;;;;6155572;23;20428;-69
2021/12/19 01:18:18;;;;;;;2.47;1.38;;;7.80;99.90;;;;;;6157014;23;20009;-69
2021/12/19 01:20:45;;;;;;;3.90;1.50;;;7.80;99.90;;;;;;6156784;23;20017;-69
2021/12/19 01:23:13;;;;;;;2.15;1.30;;;7.80;99.90;;;;;;6156903;23;20009;-69
2021/12/19 01:25:40;;;;;;;4.75;1.83;;;7.80;99.90;;;;;;6157008;23;20023;-69
2021/12/19 01:28:07;;;;;;;1.58;1.00;;;7.90;99.90;;;;;;6156593;23;20023;-69
2021/12/19 01:30:34;;;;;;;2.15;1.17;;;7.90;99.90;;;;;;6155533;23;20002;-69
2021/12/19 01:33:01;;;;;;;6.22;1.60;;;7.90;99.90;;;;;;6157160;23;20019;-69
2021/12/19 01:35:28;;;;;;;3.72;1.20;;;7.90;99.90;;;;;;6157059;23;20081;-69
2021/12/19 01:37:55;;;;;;;3.42;1.50;;;7.80;99.90;;;;;;6156760;23;20419;-69
2021/12/19 01:40:22;;;;;;;4.03;1.38;;;7.80;99.90;;;;;;6157243;23;20018;-69
2021/12/19 01:42:54;;;;;;;2.65;1.33;;;7.80;99.90;;;;;;6156875;23;20004;-69
2021/12/19 01:45:41;;;;;;;2.58;1.20;;;7.70;99.90;;;;;;6156772;23;20015;-69
2021/12/19 01:48:13;;;;;;;2.88;1.63;;;7.70;99.90;;;;;;6157173;23;20013;-69
2021/12/19 01:50:42;;;;;;;1.55;0.90;;;7.60;99.90;;;;;;6156724;23;20090;-69
2021/12/19 01:53:29;;;;;;;1.38;0.90;;;7.70;99.90;;;;;;6157134;23;20324;-69
2021/12/19 01:55:56;;;;;;;7.30;1.40;;;7.60;99.90;;;;;;6156761;23;20056;-69
2021/12/19 01:58:23;;;;;;;2.05;1.05;;;7.60;99.90;;;;;;6155073;23;20390;-69
2021/12/19 02:00:54;;;;;;;1.40;1.10;;;7.60;99.90;;;;;;6157099;23;20014;-69
2021/12/19 02:03:25;;;;;;;1.02;0.93;;;7.60;99.90;;;;;;6156596;23;20452;-69
2021/12/19 02:05:53;;;;;;;2.97;1.00;;;7.50;99.90;;;;;;6155049;23;20097;-69
2021/12/19 02:08:20;;;;;;;2.15;1.23;;;7.50;99.90;;;;;;6157056;23;20077;-69
2021/12/19 02:10:47;;;;;;;2.78;1.08;;;7.50;99.90;;;;;;6156580;23;20013;-69
2021/12/19 02:13:15;;;;;;;1.50;1.08;;;7.50;99.90;;;;;;6155070;23;20009;-69
2021/12/19 02:15:44;;;;;;;2.42;1.10;;;7.40;99.90;;;;;;6156600;23;19998;-69
2021/12/19 02:18:22;;;;;;;3.75;1.15;;;7.40;99.90;;;;;;6156753;23;20442;-69
2021/12/19 02:20:53;;;;;;;3.65;0.82;;;7.40;99.90;;;;;;6156670;23;20013;-69
2021/12/19 02:23:26;;;;;;;2.72;1.45;;;7.30;99.90;;;;;;6156874;23;20001;-69
2021/12/19 02:25:56;;;;;;;2.33;0.83;;;7.30;99.90;;;;;;6156532;23;20028;-69
2021/12/19 02:28:26;;;;;;;14.90;1.77;;;7.20;99.90;;;;;;6156124;23;20029;-69
2021/12/19 02:30:53;;;;;;;2.00;1.20;;;7.20;99.90;;;;;;6156793;23;20037;-69
2021/12/19 02:33:23;;;;;;;3.47;1.55;;;7.20;99.90;;;;;;6156391;23;20060;-69
2021/12/19 02:36:06;;;;;;;1.75;1.30;;;7.10;99.90;;;;;;6156394;23;20010;-69
2021/12/19 02:49:42;;;;;;;3.35;1.33;;;6.90;99.90;;;;;;6156177;23;20020;-69
2021/12/19 02:52:14;;;;;;;3.50;1.75;;;6.90;99.90;;;;;;6156269;23;20435;-69
2021/12/19 02:54:47;;;;;;;4.47;2.08;;;6.90;99.90;;;;;;6156251;23;20036;-69
2021/12/19 02:57:13;;;;;;;6.15;2.08;;;6.90;99.90;;;;;;6156604;23;20033;-69
2021/12/19 02:59:40;;;;;;;3.10;1.40;;;6.80;99.90;;;;;;6156488;23;20391;-69
2021/12/19 03:02:07;;;;;;;3.50;1.30;;;6.80;99.90;;;;;;6156155;23;20017;-69
2021/12/19 03:04:33;;;;;;;6.50;1.42;;;6.80;99.90;;;;;;6156169;23;20006;-69
2021/12/19 03:07:00;;;;;;;3.78;1.30;;;6.70;99.90;;;;;;6156225;23;20005;-69
2021/12/19 03:09:49;;;;;;;9.13;1.38;;;6.70;99.90;;;;;;6156080;23;20005;-69
2021/12/19 03:12:33;;;;;;;5.53;1.70;;;6.70;99.90;;;;;;6156159;23;20096;-69
2021/12/19 03:20:35;;;;;;;3.42;1.30;;;6.60;99.90;;;;;;6158173;23;20040;-69
2021/12/19 03:23:04;;;;;;;2.72;1.40;;;6.60;99.90;;;;;;6158590;23;20002;-68
2021/12/19 03:25:35;;;;;;;2.88;1.42;;;6.60;99.90;;;;;;6156583;23;20013;-69
2021/12/19 03:28:04;;;;;;;1.92;1.35;;;6.60;99.90;;;;;;6157922;23;20048;-69
2021/12/19 03:30:33;;;;;;;3.35;1.48;;;6.50;99.90;;;;;;6158556;23;20076;-69
2021/12/19 03:33:01;;;;;;;5.15;1.63;;;6.50;99.90;;;;;;6158441;23;20013;-69
2021/12/19 03:35:30;;;;;;;1.25;1.08;;;6.50;99.90;;;;;;6158069;23;20009;-69
2021/12/19 03:38:04;;;;;;;2.50;1.13;;;6.50;99.90;;;;;;6157748;23;20005;-69
2021/12/19 03:40:36;;;;;;;2.40;1.05;;;6.50;99.90;;;;;;6158130;23;20522;-69
2021/12/19 03:43:31;;;;;;;4.05;1.10;;;6.40;99.90;;;;;;6158275;23;20020;-69
2021/12/19 03:45:57;;;;;;;4.05;1.40;;;6.40;99.90;;;;;;6157976;23;20033;-69
2021/12/19 03:48:24;;;;;;;4.25;1.75;;;6.30;99.90;;;;;;6158245;23;20080;-69
2021/12/19 03:50:50;;;;;;;3.15;1.48;;;6.30;99.90;;;;;;6158302;23;20332;-69
2021/12/19 03:53:21;;;;;;;5.47;1.75;;;6.20;99.90;;;;;;6158199;23;20031;-69
2021/12/19 03:55:48;;;;;;;2.10;1.10;;;6.20;99.90;;;;;;6158187;23;20016;-69
2021/12/19 03:58:15;;;;;;;4.22;1.45;;;6.20;99.90;;;;;;6158180;23;20013;-69
2021/12/19 04:00:43;;;;;;;1.95;1.50;;;6.20;99.90;;;;;;6157811;23;20010;-69
2021/12/19 04:03:16;;;;;;;2.65;1.45;;;6.20;99.90;;;;;;6158098;23;20089;-69
2021/12/19 04:05:44;;;;;;;6.13;1.75;;;6.20;99.90;;;;;;6157849;23;20005;-69
2021/12/19 04:08:10;;;;;;;4.88;1.42;;;6.10;99.90;;;;;;6157812;23;20013;-69
2021/12/19 04:10:37;;;;;;;5.97;1.50;;;6.10;99.90;;;;;;6157716;23;20336;-69
2021/12/19 04:13:06;;;;;;;3.78;1.80;;;6.10;99.90;;;;;;6157709;23;20005;-69
2021/12/19 04:15:35;;;;;;;5.40;1.98;;;6.10;99.90;;;;;;6157812;23;20077;-69
2021/12/19 04:18:02;;;;;;;6.93;2.10;;;6.10;99.90;;;;;;6157582;23;20002;-69
2021/12/19 04:20:28;;;;;;;5.63;1.80;;;6.10;99.90;;;;;;6157669;23;20041;-69
2021/12/19 04:22:55;;;;;;;5.70;1.70;;;6.10;99.90;;;;;;6157475;23;20439;-69
2021/12/19 04:25:21;;;;;;;3.50;1.55;;;6.10;99.90;;;;;;6158611;23;20017;-69
2021/12/19 04:27:48;;;;;;;3.50;1.50;;;6.00;99.90;;;;;;6157642;23;20012;-69
2021/12/19 04:30:19;;;;;;;2.90;1.63;;;6.10;99.90;;;;;;6157578;23;20014;-69
2021/12/19 04:32:56;;;;;;;2.22;1.30;;;6.00;99.90;;;;;;6155817;23;20010;-70
2021/12/19 04:35:25;;;;;;;7.18;1.80;;;6.00;99.90;;;;;;6155976;23;20028;-69
2021/12/19 04:40:34;;;;;;;4.50;1.80;;;5.90;99.90;;;;;;6157886;23;20016;-69
2021/12/19 04:54:17;;;;;;;8.88;1.70;;;5.90;99.90;;;;;;6157252;23;20056;-69
2021/12/19 04:57:32;;;;;;;6.30;1.40;;;5.90;99.90;;;;;;6157335;23;20009;-69
2021/12/19 04:59:52;;;;;;;1.77;1.35;;;5.90;99.90;;;;;;6149071;23;20448;-69
2021/12/19 05:05:23;;;;;;;7.28;1.33;;;5.80;99.90;;;;;;6157257;23;20348;-68
2021/12/19 05:16:07;;;;;;;3.70;1.58;;;5.80;99.90;;;;;;6157400;23;20021;-69
2021/12/19 05:18:38;;;;;;;5.15;1.70;;;5.70;99.90;;;;;;6157463;23;20020;-69
2021/12/19 05:21:14;;;;;;;4.82;1.40;;;5.70;99.90;;;;;;6156970;23;20036;-70
2021/12/19 05:26:17;;;;;;;4.00;1.40;;;5.70;99.90;;;;;;6157132;23;20008;-69
2021/12/19 05:28:44;;;;;;;4.50;1.40;;;5.70;99.90;;;;;;6156836;23;20359;-69
2021/12/19 05:31:10;;;;;;;4.93;1.60;;;5.70;99.90;;;;;;6155556;23;20005;-69
2021/12/19 05:33:37;;;;;;;5.32;1.52;;;5.70;99.90;;;;;;6156939;23;20013;-69
2021/12/19 05:44:10;;;;;;;3.97;1.65;;;5.70;99.90;;;;;;6157364;23;20327;-69
2021/12/19 05:47:02;;;;;;;3.70;1.73;;;5.60;99.90;;;;;;6156886;23;20503;-69
2021/12/19 05:49:29;;;;;;;2.75;1.55;;;5.60;99.90;;;;;;6156877;23;20033;-69
2021/12/19 05:51:57;;;;;;;3.20;1.70;;;5.50;99.90;;;;;;6157724;23;20013;-69
2021/12/19 05:54:26;;;;;;;3.05;1.70;;;5.50;99.90;;;;;;6156794;23;20009;-69
2021/12/19 05:56:53;;;;;;;4.95;2.15;;;5.50;99.90;;;;;;6157156;23;20010;-69
2021/12/19 05:59:22;;;;;;;5.30;2.40;;;5.40;99.90;;;;;;6156589;23;20052;-69
2021/12/19 06:01:49;;;;;;;8.65;2.22;;;5.40;99.90;;;;;;6156640;23;20002;-69
2021/12/19 06:04:15;;;;;;;6.18;2.42;;;5.30;99.90;;;;;;6157009;23;20370;-69
2021/12/19 06:06:42;;;;;;;3.92;1.90;;;5.30;99.90;;;;;;6157027;23;20009;-69
2021/12/19 06:09:08;;;;;;;4.07;1.90;;;5.10;99.90;;;;;;6156659;23;20013;-69
2021/12/19 06:11:35;;;;;;;4.93;1.45;;;5.00;99.90;;;;;;6156604;23;20001;-69
2021/12/19 06:14:02;;;;;;;4.95;2.50;;;5.10;99.90;;;;;;6156562;23;20009;-69
2021/12/19 06:16:28;;;;;;;3.63;1.80;;;5.10;99.90;;;;;;6156642;23;20005;-69
2021/12/19 06:18:55;;;;;;;4.97;2.10;;;5.20;99.90;;;;;;6156478;23;20417;-69
2021/12/19 06:21:21;;;;;;;8.45;1.90;;;5.20;99.90;;;;;;6156687;23;20451;-69
2021/12/19 06:23:48;;;;;;;4.78;2.15;;;5.20;99.90;;;;;;6156484;23;20016;-69
2021/12/19 06:26:14;;;;;;;3.40;2.17;;;5.20;99.90;;;;;;6156846;23;20002;-69
2021/12/19 06:28:41;;;;;;;3.70;1.73;;;5.20;99.90;;;;;;6154649;23;20436;-69
2021/12/19 06:31:08;;;;;;;4.60;1.75;;;5.10;99.90;;;;;;6156414;23;20089;-69
2021/12/19 06:33:35;;;;;;;8.30;2.05;;;5.10;99.90;;;;;;6154940;23;20005;-69
2021/12/19 06:36:05;;;;;;;7.35;2.08;;;5.10;99.90;;;;;;6156782;23;20005;-69
2021/12/19 06:38:32;;;;;;;9.73;2.65;;;5.20;99.90;;;;;;6156318;23;20037;-69
2021/12/19 06:40:58;;;;;;;4.50;2.45;;;5.10;99.90;;;;;;6156364;23;20487;-69
2021/12/19 06:43:26;;;;;;;4.95;1.65;;;5.10;99.90;;;;;;6156291;23;20001;-69
2021/12/19 06:45:55;;;;;;;4.70;2.08;;;5.10;99.90;;;;;;6156349;23;20005;-69
2021/12/19 06:48:24;;;;;;;4.75;1.80;;;5.10;99.90;;;;;;6156474;23;20226;-69
2021/12/19 06:50:52;;;;;;;7.70;2.30;;;5.20;99.90;;;;;;6156179;23;20017;-69
2021/12/19 06:53:19;;;;;;;7.93;2.55;;;5.20;99.90;;;;;;6156007;23;20032;-69
2021/12/19 06:55:46;;;;;;;6.43;2.00;;;5.10;99.90;;;;;;6156686;23;20016;-69
2021/12/19 06:58:12;;;;;;;3.60;1.88;;;5.20;99.90;;;;;;6154617;23;20056;-69
2021/12/19 07:00:40;;;;;;;7.57;2.08;;;5.20;99.90;;;;;;6156271;23;20020;-69
2021/12/19 07:03:09;;;;;;;7.38;2.65;;;5.30;99.90;;;;;;6156123;23;20013;-69
2021/12/19 07:05:39;;;;;;;5.50;1.73;;;5.20;99.90;;;;;;6156239;23;20064;-69
2021/12/19 07:08:05;;;;;;;4.45;1.83;;;5.30;99.90;;;;;;6156167;23;20010;-69
2021/12/19 07:10:32;;;;;;;8.05;2.20;;;5.40;99.90;;;;;;6156257;23;20398;-69
2021/12/19 07:12:59;;;;;;;6.28;1.90;;;5.40;99.90;;;;;;6156106;23;20077;-69
2021/12/19 07:15:27;;;;;;;7.15;1.92;;;5.40;99.90;;;;;;6156100;23;20008;-69
2021/12/19 07:17:55;;;;;;;16.33;2.53;;;5.50;99.90;;;;;;6156129;23;20044;-69
2021/12/19 07:20:22;;;;;;;5.53;1.90;;;5.60;99.90;;;;;;6156127;23;20387;-69
2021/12/19 07:22:49;;;;;;;5.03;2.15;;;5.70;99.90;;;;;;6156102;23;20006;-69
2021/12/19 07:25:15;;;;;;;5.13;1.80;;;5.70;99.90;;;;;;6156201;23;20010;-69
2021/12/19 07:27:42;;;;;;;10.27;2.65;;;5.80;99.90;;;;;;6156291;23;20002;-69
2021/12/19 07:30:09;;;;;;;4.15;2.30;;;5.90;99.90;;;;;;6155012;23;20431;-69
2021/12/19 07:32:37;;;;;;;3.70;1.70;;;6.00;99.90;;;;;;6156103;23;20498;-69
2021/12/19 07:35:08;;;;;;;3.10;1.67;;;6.00;99.90;;;;;;6155917;23;20444;-69
2021/12/19 07:37:38;;;;;;;2.42;1.50;;;6.20;99.90;;;;;;6156061;23;20044;-69
2021/12/19 07:40:27;;;;;;;4.28;2.28;;;6.20;99.90;;;;;;6155873;23;20041;-69
2021/12/19 07:42:58;;;;;;;3.72;1.85;;;6.20;99.90;;;;;;6155928;23;20424;-68
2021/12/19 07:45:27;;;;;;;4.85;2.33;;;6.10;99.90;;;;;;6155923;23;20045;-69
2021/12/19 07:47:53;;;;;;;13.52;2.88;;;6.20;99.90;;;;;;6156233;23;20013;-69
2021/12/19 07:50:20;;;;;;;6.30;3.03;;;6.30;99.90;;;;;;6156347;23;20028;-69
2021/12/19 07:52:46;;;;;;;8.07;2.72;;;6.30;99.90;;;;;;6156307;23;20029;-69
2021/12/19 07:55:13;;;;;;;8.40;4.35;;;6.40;99.90;;;;;;6156248;23;20009;-69
2021/12/19 07:57:40;;;;;;;9.32;4.47;;;6.60;99.90;;;;;;6156312;23;20033;-64
2021/12/19 08:00:13;;;;;;;10.25;4.18;;;6.80;99.90;;;;;;6156141;23;20088;-68
2021/12/19 08:02:42;;;;;;;13.95;6.10;;;6.90;99.90;;;;;;6156069;23;20451;-68
2021/12/19 08:05:09;;;;;;;12.65;5.53;;;6.90;99.90;;;;;;6155451;23;20432;-68
2021/12/19 08:07:38;;;;;;;11.15;5.15;;;7.00;99.90;;;;;;6158091;23;19998;-68
2021/12/19 08:12:37;;;;;;;14.27;5.00;;;7.10;99.90;;;;;;6157603;23;20339;-68
2021/12/19 08:15:09;;;;;;;10.88;5.57;;;7.10;99.90;;;;;;6157716;23;20016;-68
2021/12/19 08:17:36;;;;;;;13.40;5.32;;;7.20;99.90;;;;;;6157614;23;20005;-68
2021/12/19 08:20:05;;;;;;;6.85;3.72;;;7.30;99.90;;;;;;6157546;23;20432;-68
2021/12/19 08:22:33;;;;;;;8.52;3.72;;;7.40;99.90;;;;;;6157919;23;20037;-68
2021/12/19 08:25:00;;;;;;;9.20;4.22;;;7.50;99.90;;;;;;6157734;23;20313;-68
2021/12/19 08:27:27;;;;;;;8.32;4.07;;;7.60;99.90;;;;;;6157565;23;20001;-68
2021/12/19 08:29:55;;;;;;;5.78;3.17;;;7.70;99.90;;;;;;6157916;23;20021;-68
2021/12/19 08:32:25;;;;;;;8.95;3.15;;;7.80;99.90;;;;;;6157961;23;20006;-68
2021/12/19 08:34:54;;;;;;;6.80;3.85;;;7.90;99.90;;;;;;6157920;23;20044;-68
2021/12/19 08:37:21;;;;;;;12.82;4.38;;;7.90;99.90;;;;;;6157421;23;20331;-68
2021/12/19 08:39:48;;;;;;;10.95;4.22;;;8.00;99.90;;;;;;6157296;23;20028;-68
2021/12/19 08:42:15;;;;;;;8.05;4.00;;;8.10;99.90;;;;;;6157406;23;20001;-68
2021/12/19 08:44:42;;;;;;;10.30;3.70;;;8.30;99.90;;;;;;6158222;23;20010;-68
2021/12/19 08:47:09;;;;;;;11.85;3.45;;;8.30;99.90;;;;;;6157403;23;20012;-68
2021/12/19 08:49:36;;;;;;;9.75;4.05;;;8.40;99.90;;;;;;6157315;23;20428;-68
2021/12/19 08:52:04;;;;;;;9.82;3.35;;;8.50;99.90;;;;;;6156373;23;20076;-68
2021/12/19 08:54:31;;;;;;;6.88;2.75;;;8.60;99.90;;;;;;6157402;23;20068;-68
2021/12/19 08:56:58;;;;;;;8.07;3.33;;;8.70;99.90;;;;;;6157170;23;20010;-68
2021/12/19 08:59:29;;;;;;;6.03;2.95;;;8.80;99.90;;;;;;6157137;23;20022;-68
2021/12/19 09:02:00;;;;;;;6.60;3.47;;;8.90;99.90;;;;;;6157133;23;20002;-68
2021/12/19 09:04:27;;;;;;;5.22;2.55;;;8.90;99.90;;;;;;6157517;23;20032;-68
2021/12/19 09:06:56;;;;;;;6.40;2.45;;;8.90;99.90;;;;;;6157254;23;20002;-68
2021/12/19 09:09:24;;;;;;;9.02;2.67;;;9.00;99.90;;;;;;6157103;23;20016;-68
2021/12/19 09:11:52;;;;;;;3.10;2.00;;;9.00;99.90;;;;;;6157539;23;20001;-68
2021/12/19 09:14:19;;;;;;;2.95;1.40;;;9.10;99.90;;;;;;6157454;23;20016;-68
2021/12/19 09:16:46;;;;;;;3.67;1.75;;;9.10;99.90;;;;;;6156736;23;20005;-68
2021/12/19 09:19:14;;;;;;;7.97;2.47;;;9.10;99.90;;;;;;6156988;23;20177;-68
2021/12/19 09:21:41;;;;;;;4.78;2.63;;;9.20;99.90;;;;;;6157071;23;20005;-68
2021/12/19 09:24:08;;;;;;;3.58;1.70;;;9.20;99.90;;;;;;6157063;23;20506;-68
2021/12/19 09:26:40;;;;;;;1.35;1.00;;;9.30;99.90;;;;;;6157466;23;20001;-68
2021/12/19 09:29:08;;;;;;;3.10;1.75;;;9.30;99.90;;;;;;6156804;23;20335;-68
2021/12/19 09:31:35;;;;;;;2.17;1.52;;;9.40;99.90;;;;;;6156763;23;20013;-68
2021/12/19 09:34:01;;;;;;;2.90;1.90;;;9.40;99.90;;;;;;6156963;23;20009;-68
2021/12/19 09:36:28;;;;;;;3.28;2.38;;;9.40;99.90;;;;;;6157280;23;20332;-67
2021/12/19 09:38:57;;;;;;;4.05;1.77;;;9.50;99.90;;;;;;6157191;23;20017;-68
2021/12/19 09:41:30;;;;;;;7.75;1.80;;;9.50;99.90;;;;;;6155132;23;20009;-68
2021/12/19 09:43:58;;;;;;;4.47;1.27;;;9.50;99.90;;;;;;6157297;23;20072;-68
2021/12/19 09:46:40;;;;;;;3.97;1.83;;;9.60;99.90;;;;;;6157059;23;20328;-68
2021/12/19 09:49:18;;;;;;;3.03;1.75;;;9.60;99.90;;;;;;6156817;23;20005;-67
2021/12/19 09:51:45;;;;;;;3.55;1.58;;;9.60;99.90;;;;;;6155724;23;20309;-68
2021/12/19 09:54:13;;;;;;;10.38;1.65;;;9.60;99.90;;;;;;6157036;23;20013;-68
2021/12/19 09:56:42;;;;;;;5.45;1.15;;;9.70;99.90;;;;;;6156740;23;20451;-67
2021/12/19 09:59:14;;;;;;;2.60;1.42;;;9.70;99.90;;;;;;6156495;23;20024;-68
2021/12/19 10:01:41;;;;;;;2.35;1.73;;;9.70;99.90;;;;;;6157103;23;20006;-68
2021/12/19 10:04:44;;;;;;;1.77;1.02;;;9.70;99.90;;;;;;6156953;23;20027;-68
2021/12/19 10:07:28;;;;;;;1.77;1.23;;;9.70;99.90;;;;;;6043008;23;20429;-68
2021/12/19 10:10:12;;;;;;;3.83;1.38;;;9.70;99.90;;;;;;6066617;23;20338;-67
2021/12/19 10:12:52;;;;;;;2.42;1.80;;;9.70;99.90;;;;;;6066688;23;20011;-68
2021/12/19 10:15:28;;;;;;;5.68;1.73;;;9.70;99.90;;;;;;6066522;23;20086;-68
2021/12/19 10:18:11;;;;;;;7.95;1.98;;;9.80;99.90;;;;;;6066983;23;20032;-68
2021/12/19 10:20:59;;;;;;;2.55;1.45;;;9.80;99.90;;;;;;6066477;23;20019;-68
2021/12/19 10:23:28;;;;;;;5.07;1.20;;;9.80;99.90;;;;;;6066395;23;20034;-68
2021/12/19 10:26:06;;;;;;;3.90;1.30;;;9.80;99.90;;;;;;6066486;23;20006;-68
2021/12/19 10:28:35;;;;;;;4.53;1.80;;;9.80;99.90;;;;;;6066018;23;20107;-68
2021/12/19 10:31:03;;;;;;;3.50;1.35;;;9.80;99.90;;;;;;6066378;23;20014;-68
2021/12/19 10:33:32;;;;;;;3.60;1.42;;;9.80;99.90;;;;;;6066360;23;20007;-68
2021/12/19 10:36:03;;;;;;;9.38;1.65;;;9.80;99.90;;;;;;6066440;23;20103;-68
2021/12/19 10:38:44;;;;;;;3.85;1.98;;;9.80;99.90;;;;;;6066780;23;20015;-67
2021/12/19 10:41:16;;;;;;;3.85;1.33;;;9.90;99.90;;;;;;6114072;23;20012;-68
2021/12/19 10:43:59;;;;;;;3.40;1.33;;;9.90;99.90;;;;;;6156188;23;20013;-68
2021/12/19 10:46:37;;;;;;;3.08;1.48;;;9.90;99.90;;;;;;6156267;23;20016;-68
2021/12/19 10:49:05;;;;;;;2.83;1.67;;;9.90;99.90;;;;;;6155709;23;20013;-68
2021/12/19 10:51:37;;;;;;;4.13;2.05;;;10.00;99.90;;;;;;6156162;23;20012;-68
2021/12/19 10:54:07;;;;;;;2.33;1.52;;;10.00;99.90;;;;;;6156107;23;20091;-68
2021/12/19 10:56:37;;;;;;;4.93;1.63;;;10.00;99.90;;;;;;6156247;23;20013;-68
2021/12/19 10:59:06;;;;;;;2.78;1.20;;;10.00;99.90;;;;;;6156485;23;20024;-68
2021/12/19 11:01:39;;;;;;;1.45;1.10;;;10.00;99.90;;;;;;6156078;23;20454;-68
2021/12/19 11:04:29;;;;;;;6.60;1.77;;;10.00;99.90;;;;;;6156643;23;20009;-68
2021/12/19 11:07:02;;;;;;;2.00;1.15;;;10.10;99.90;;;;;;6156174;23;20060;-68
2021/12/19 11:09:39;;;;;;;4.85;1.83;;;10.10;99.90;;;;;;6156503;23;20012;-68
2021/12/19 11:12:11;;;;;;;4.57;1.33;;;10.10;99.90;;;;;;6156532;23;20017;-68
2021/12/19 11:14:44;;;;;;;2.67;1.52;;;10.10;99.90;;;;;;6156109;23;20041;-68
2021/12/19 11:17:15;;;;;;;1.25;1.10;;;10.10;99.90;;;;;;6156221;23;20363;-68
2021/12/19 11:19:45;;;;;;;2.97;1.30;;;10.10;99.90;;;;;;6156017;23;20014;-68
2021/12/19 11:22:23;;;;;;;3.63;1.70;;;10.10;99.90;;;;;;6155977;23;20046;-68
2021/12/19 11:24:51;;;;;;;10.43;2.13;;;10.20;99.90;;;;;;6156142;23;20010;-68
2021/12/19 11:27:19;;;;;;;3.95;1.88;;;10.20;99.90;;;;;;6155993;23;20006;-68
2021/12/19 11:29:48;;;;;;;8.02;2.47;;;10.10;99.90;;;;;;6155792;23;20028;-68
2021/12/19 11:32:19;;;;;;;5.88;2.30;;;10.10;99.90;;;;;;6156319;23;20319;-68
2021/12/19 11:35:07;;;;;;;7.60;1.67;;;10.20;99.90;;;;;;6156024;23;20009;-68
2021/12/19 11:37:49;;;;;;;4.70;1.48;;;10.20;99.90;;;;;;6156146;23;20037;-68
2021/12/19 11:40:19;;;;;;;2.78;1.50;;;10.20;99.90;;;;;;6157177;23;20045;-68
2021/12/19 11:42:46;;;;;;;4.05;1.80;;;10.20;99.90;;;;;;6158417;23;20068;-68
2021/12/19 11:45:40;;;;;;;2.95;1.63;;;10.30;99.90;;;;;;6157975;23;20013;-68
2021/12/19 11:48:25;;;;;;;12.68;1.65;;;10.30;99.90;;;;;;6157781;23;20068;-68
2021/12/19 11:50:56;;;;;;;4.43;1.67;;;10.30;99.90;;;;;;6157958;23;20010;-68
2021/12/19 11:53:51;;;;;;;5.35;2.17;;;10.30;99.90;;;;;;6158258;23;20013;-68
2021/12/19 11:56:19;;;;;;;2.20;1.50;;;10.30;99.90;;;;;;6096688;23;20014;-69
2021/12/19 11:58:49;;;;;;;1.80;1.70;;;10.40;99.90;;;;;;6097216;23;20010;-68
2021/12/19 12:01:33;;;;;;;9.45;3.00;;;10.40;99.90;;;;;;6096914;23;20037;-68
2021/12/19 12:04:18;;;;;;;8.73;2.60;;;10.30;99.90;;;;;;6072624;23;20341;-68
2021/12/19 12:06:57;;;;;;;6.90;2.70;;;10.40;99.90;;;;;;6096590;23;20021;-68
2021/12/19 12:09:29;;;;;;;3.88;1.92;;;10.40;99.90;;;;;;6072512;23;20010;-68
2021/12/19 12:12:10;;;;;;;5.80;2.22;;;10.40;99.90;;;;;;6096486;23;20006;-69
2021/12/19 12:15:01;;;;;;;2.38;1.90;;;10.40;99.90;;;;;;6096807;23;20006;-68
2021/12/19 12:17:38;;;;;;;4.93;1.95;;;10.30;99.90;;;;;;6096482;23;20017;-68
2021/12/19 12:20:18;;;;;;;5.68;2.25;;;10.40;99.90;;;;;;6096402;23;20197;-68
2021/12/19 12:22:55;;;;;;;6.30;2.10;;;10.40;99.90;;;;;;6096469;23;20016;-68
2021/12/19 12:25:27;;;;;;;4.57;2.05;;;10.40;99.90;;;;;;6095448;23;20010;-68
2021/12/19 12:28:03;;;;;;;4.13;2.00;;;10.40;99.90;;;;;;6093266;23;20059;-68
2021/12/19 12:30:40;;;;;;;6.65;1.95;;;10.40;99.90;;;;;;6096003;23;20014;-68
2021/12/19 12:33:11;;;;;;;3.42;1.75;;;10.50;99.90;;;;;;6114233;23;20380;-68
2021/12/19 12:35:44;;;;;;;4.97;2.35;;;10.50;99.90;;;;;;6156111;23;20027;-68
2021/12/19 12:38:11;;;;;;;4.85;1.90;;;10.50;99.90;;;;;;6157448;23;20016;-68
2021/12/19 12:41:06;;;;;;;4.47;1.90;;;10.50;99.90;;;;;;6157861;23;20152;-68
2021/12/19 12:43:35;;;;;;;9.13;1.85;;;10.50;99.90;;;;;;6157447;23;20044;-68
2021/12/19 12:46:15;;;;;;;3.83;1.95;;;10.50;99.90;;;;;;6157762;23;20095;-68
2021/12/19 12:48:52;;;;;;;5.90;2.60;;;10.50;99.90;;;;;;6157248;23;20455;-68
2021/12/19 12:51:34;;;;;;;3.22;2.10;;;10.50;99.90;;;;;;6156663;23;20056;-68
2021/12/19 12:54:34;;;;;;;5.25;2.05;;;10.50;99.90;;;;;;6157719;23;20384;-68
2021/12/19 12:57:04;;;;;;;3.33;1.92;;;10.50;99.90;;;;;;6151081;23;20013;-68
2021/12/19 12:59:36;;;;;;;3.20;1.92;;;10.50;99.90;;;;;;6155745;23;20052;-68
2021/12/19 13:02:17;;;;;;;3.35;1.38;;;10.50;99.90;;;;;;6155710;23;20064;-68
2021/12/19 13:04:50;;;;;;;4.68;1.90;;;10.50;99.90;;;;;;6157211;23;20005;-68
2021/12/19 13:07:23;;;;;;;3.30;1.52;;;10.50;99.90;;;;;;6157623;23;20364;-68
2021/12/19 13:09:57;;;;;;;5.00;1.77;;;10.50;99.90;;;;;;6157113;23;20009;-68
2021/12/19 13:12:29;;;;;;;3.30;1.83;;;10.50;99.90;;;;;;6157303;23;20380;-68
2021/12/19 13:14:57;;;;;;;2.70;1.83;;;10.50;99.90;;;;;;6156942;23;20005;-68
2021/12/19 13:17:31;;;;;;;5.13;1.83;;;10.50;99.90;;;;;;6157475;23;20006;-68
2021/12/19 13:19:59;;;;;;;5.55;1.90;;;10.40;99.90;;;;;;6157210;23;20018;-68
2021/12/19 13:22:25;;;;;;;3.65;2.00;;;10.50;99.90;;;;;;6157214;23;20012;-68
2021/12/19 13:25:00;;;;;;;4.20;1.98;;;10.50;99.90;;;;;;6155568;23;20343;-68
2021/12/19 13:27:34;;;;;;;4.28;2.33;;;10.40;99.90;;;;;;6155049;23;20032;-64
2021/12/19 13:30:04;;;;;;;6.40;1.90;;;10.40;99.90;;;;;;6157046;23;20025;-68
2021/12/19 13:32:37;;;;;;;6.40;2.22;;;10.50;99.90;;;;;;6156982;23;20056;-68
2021/12/19 13:35:12;;;;;;;8.70;2.60;;;10.40;99.90;;;;;;6155475;23;20044;-68
2021/12/19 13:37:53;;;;;;;4.30;1.70;;;10.50;99.90;;;;;;6156890;23;20487;-68
2021/12/19 13:40:35;;;;;;;4.50;1.20;;;10.50;99.90;;;;;;6156839;23;20444;-62
2021/12/19 13:43:04;;;;;;;3.63;1.42;;;10.50;99.90;;;;;;6157141;23;20104;-61
2021/12/19 13:45:38;;;;;;;7.13;2.00;;;10.50;99.90;;;;;;6156817;23;20013;-61
2021/12/19 13:48:09;;;;;;;4.15;1.75;;;10.50;99.90;;;;;;6156760;23;20005;-61
2021/12/19 13:51:17;;;;;;;4.88;2.50;;;10.50;99.90;;;;;;6156857;23;20431;-61
2021/12/19 13:54:00;;;;;;;6.60;2.38;;;10.50;99.90;;;;;;6143811;23;20017;-68
2021/12/19 13:56:35;;;;;;;5.22;2.17;;;10.50;99.90;;;;;;6155236;23;20014;-62
2021/12/19 13:59:06;;;;;;;6.38;2.50;;;10.40;99.90;;;;;;6156594;23;20088;-62
2021/12/19 14:01:36;;;;;;;4.32;1.73;;;10.50;99.90;;;;;;6155070;23;20010;-61
2021/12/19 14:04:22;;;;;;;5.28;1.50;;;10.40;99.90;;;;;;6156883;23;20009;-62
2021/12/19 14:07:10;;;;;;;3.30;1.90;;;10.40;99.90;;;;;;6156561;23;20006;-62
2021/12/19 14:09:46;;;;;;;6.60;2.55;;;10.40;99.90;;;;;;6156623;23;20014;-61
2021/12/19 14:12:38;;;;;;;4.55;2.28;;;10.50;99.90;;;;;;6156603;23;20008;-61